Time;durP1;ratioP1;P1;durP2;ratioP2;P2;SDS_P1;SDS_P2;PMS_P1;PMS_P2;Temp;Humidity;BMP_temperature;BMP_pressure;BME280_temperature;BME280_humidity;BME280_pressure;Samples;Min_cycle;Max_cycle;Signal;HPM_P1;HPM_P2
2022/08/25 00:00:12;;;;;;;10.75;5.70;;;;;;;26.83;46.38;100885.38;5058714;28;20051;-70
2022/08/25 00:02:40;;;;;;;10.15;5.10;;;;;;;26.85;47.05;100885.75;5051468;28;20052;-70
2022/08/25 00:05:24;;;;;;;14.15;5.32;;;;;;;26.80;46.98;100887.00;5048021;28;20492;-69
2022/08/25 00:07:53;;;;;;;9.52;4.82;;;;;;;26.60;46.34;100883.16;5054035;28;20080;-70
2022/08/25 00:10:20;;;;;;;9.65;4.95;;;;;;;26.86;47.31;100878.88;5061102;28;20060;-70
2022/08/25 00:12:47;;;;;;;9.48;4.80;;;;;;;26.62;47.25;100889.19;5075825;28;20049;-69
2022/08/25 00:15:15;;;;;;;13.90;5.53;;;;;;;26.53;47.21;100886.03;5074459;28;20044;-70
2022/08/25 00:17:42;;;;;;;8.73;5.00;;;;;;;26.51;48.33;100877.19;5058631;28;20049;-71
2022/08/25 00:20:10;;;;;;;10.95;5.28;;;;;;;26.48;47.93;100875.19;5079988;28;20087;-69
2022/08/25 00:22:44;;;;;;;14.02;5.40;;;;;;;26.54;47.01;100868.66;5054820;28;20490;-69
2022/08/25 00:25:11;;;;;;;14.45;5.07;;;;;;;26.59;47.95;100870.22;5066003;28;20040;-69
2022/08/25 00:27:39;;;;;;;11.82;5.10;;;;;;;26.78;47.54;100864.00;5071126;28;20049;-70
2022/08/25 00:30:07;;;;;;;11.65;5.20;;;;;;;26.64;48.01;100867.75;5053207;28;20485;-69
2022/08/25 00:32:35;;;;;;;9.80;5.70;;;;;;;26.61;48.23;100864.97;5057349;28;20279;-70
2022/08/25 00:35:03;;;;;;;9.50;4.82;;;;;;;26.57;48.44;100867.03;5062549;28;20044;-71
2022/08/25 00:37:31;;;;;;;13.43;4.95;;;;;;;26.29;49.39;100864.47;5052660;28;20062;-70
2022/08/25 00:39:59;;;;;;;13.38;5.50;;;;;;;26.32;49.08;100860.81;5061268;28;20044;-69
2022/08/25 00:42:26;;;;;;;10.18;5.00;;;;;;;26.10;47.94;100853.72;5050776;28;20057;-69
2022/08/25 00:44:54;;;;;;;14.65;5.03;;;;;;;26.08;48.71;100859.78;5063804;28;20047;-71
2022/08/25 00:47:21;;;;;;;10.95;5.18;;;;;;;26.07;50.25;100854.53;5063838;28;20057;-69
2022/08/25 00:49:51;;;;;;;10.02;4.90;;;;;;;26.09;49.30;100852.13;5044756;28;20055;-71
2022/08/25 00:52:23;;;;;;;;;;;;;;;26.00;49.32;100849.72;5066954;28;20048;-68
2022/08/25 00:54:53;;;;;;;12.45;4.85;;;;;;;26.07;50.59;100851.72;5058318;28;19927;-69
2022/08/25 00:57:24;;;;;;;11.00;4.90;;;;;;;26.10;50.53;100850.91;5068068;28;20127;-70
2022/08/25 01:00:09;;;;;;;10.65;5.35;;;;;;;26.09;50.35;100846.47;5061488;28;20052;-71
2022/08/25 01:02:37;;;;;;;9.15;5.10;;;;;;;26.10;51.07;100851.69;5049476;28;20069;-69
2022/08/25 01:05:05;;;;;;;9.30;5.25;;;;;;;25.87;50.44;100854.28;5054632;28;20050;-70
2022/08/25 01:07:32;;;;;;;10.15;5.30;;;;;;;25.76;49.31;100841.44;5051257;28;20053;-69
2022/08/25 01:09:59;;;;;;;12.93;5.30;;;;;;;25.83;50.02;100847.03;5058353;28;20060;-70
2022/08/25 01:12:27;;;;;;;11.93;4.43;;;;;;;25.94;50.26;100844.94;5057235;28;20052;-70
2022/08/25 01:14:55;;;;;;;7.78;4.30;;;;;;;25.82;49.19;100837.75;5051417;28;20052;-70
2022/08/25 01:17:26;;;;;;;13.15;5.22;;;;;;;25.88;49.13;100840.94;5061222;28;20502;-71
2022/08/25 01:19:54;;;;;;;10.23;4.97;;;;;;;26.03;49.76;100845.31;5053631;28;20059;-71
2022/08/25 01:22:25;;;;;;;8.77;4.55;;;;;;;26.14;50.38;100849.66;5056320;28;20059;-70
2022/08/25 01:25:02;;;;;;;9.27;4.85;;;;;;;26.13;50.49;100853.72;5066843;28;20044;-70
2022/08/25 01:27:29;;;;;;;11.43;5.32;;;;;;;26.21;51.56;100852.41;5060664;28;20167;-70
2022/08/25 01:29:56;;;;;;;10.32;5.10;;;;;;;26.07;51.71;100846.06;5061873;28;20041;-71
2022/08/25 01:32:24;;;;;;;8.05;5.07;;;;;;;26.02;50.72;100840.84;5051442;28;20071;-71
2022/08/25 01:34:51;;;;;;;8.85;4.70;;;;;;;25.95;49.70;100841.72;5051759;28;20063;-70
2022/08/25 01:37:19;;;;;;;11.77;4.95;;;;;;;25.97;50.96;100844.09;5056844;28;20048;-70
2022/08/25 01:39:47;;;;;;;12.10;5.15;;;;;;;25.92;50.48;100839.72;5061751;28;20045;-70
2022/08/25 01:42:22;;;;;;;8.90;5.15;;;;;;;25.94;50.19;100854.22;5040001;28;20063;-71
2022/08/25 01:44:50;;;;;;;10.10;4.40;;;;;;;25.84;48.94;100846.63;5065157;28;20053;-71
2022/08/25 01:47:17;;;;;;;9.57;4.97;;;;;;;25.87;50.16;100843.00;5060899;28;20037;-71
2022/08/25 01:49:45;;;;;;;12.13;4.88;;;;;;;25.95;51.79;100835.25;5056936;28;20045;-72
2022/08/25 01:52:43;;;;;;;14.30;5.13;;;;;;;25.87;49.08;100840.16;5058986;28;20056;-71
2022/08/25 01:55:10;;;;;;;13.48;5.07;;;;;;;25.77;50.77;100841.03;5036458;28;20523;-71
2022/08/25 01:57:38;;;;;;;10.40;4.50;;;;;;;25.86;52.07;100838.53;5058261;28;20072;-70
2022/08/25 02:00:08;;;;;;;12.38;5.00;;;;;;;25.74;52.19;100829.75;5066368;28;20049;-70
2022/08/25 02:02:38;;;;;;;11.57;4.53;;;;;;;25.70;51.74;100829.78;5054950;28;20052;-70
2022/08/25 02:05:10;;;;;;;7.20;4.35;;;;;;;25.72;50.59;100827.34;5060228;28;20056;-70
2022/08/25 02:07:37;;;;;;;8.45;4.22;;;;;;;25.78;51.20;100822.06;5054094;28;20051;-70
2022/08/25 02:10:05;;;;;;;9.85;5.00;;;;;;;25.73;50.21;100820.50;5060999;28;20049;-69
2022/08/25 02:12:34;;;;;;;7.88;4.28;;;;;;;25.77;50.81;100817.66;5051924;28;20087;-71
2022/08/25 02:15:05;;;;;;;7.78;4.18;;;;;;;25.79;51.61;100821.66;5060338;28;20464;-70
2022/08/25 02:17:35;;;;;;;11.85;4.55;;;;;;;25.55;51.53;100809.34;5051467;28;20491;-70
2022/08/25 02:20:08;;;;;;;12.80;4.43;;;;;;;25.52;52.42;100821.41;5067037;28;20052;-70
2022/08/25 02:22:36;;;;;;;9.18;4.05;;;;;;;25.47;53.60;100815.44;5062807;28;20060;-69
2022/08/25 02:25:05;;;;;;;8.27;4.38;;;;;;;25.33;52.23;100812.66;5050724;28;20504;-70
2022/08/25 02:27:32;;;;;;;13.45;5.03;;;;;;;25.19;53.11;100807.88;5052420;28;20546;-69
2022/08/25 02:29:59;;;;;;;8.43;4.60;;;;;;;25.29;53.58;100803.41;5066621;28;20059;-70
2022/08/25 02:32:26;;;;;;;10.80;5.07;;;;;;;25.33;52.04;100792.91;5067394;28;20056;-70
2022/08/25 02:34:54;;;;;;;8.85;4.75;;;;;;;25.46;52.95;100788.41;5071260;28;20041;-71
2022/08/25 02:37:21;;;;;;;8.85;5.15;;;;;;;25.47;53.96;100788.00;5066311;28;20052;-69
2022/08/25 02:39:49;;;;;;;10.02;4.68;;;;;;;25.49;53.35;100790.41;5056289;28;20655;-70
2022/08/25 02:42:16;;;;;;;9.55;4.70;;;;;;;25.39;53.39;100788.47;5055642;28;20076;-71
2022/08/25 02:44:43;;;;;;;10.73;4.93;;;;;;;25.25;52.95;100780.88;5072593;28;20052;-70
2022/08/25 02:47:10;;;;;;;11.73;4.70;;;;;;;25.28;52.45;100779.25;5053693;28;20056;-69
2022/08/25 02:49:38;;;;;;;9.27;4.70;;;;;;;25.34;53.34;100780.41;5054082;28;20053;-71
2022/08/25 02:52:05;;;;;;;12.98;4.88;;;;;;;25.20;51.91;100783.31;5073742;28;20798;-71
2022/08/25 02:54:33;;;;;;;10.60;5.07;;;;;;;25.14;52.84;100773.69;5044350;28;20053;-70
2022/08/25 02:57:01;;;;;;;7.90;4.78;;;;;;;25.14;52.38;100771.66;5063916;28;21874;-70
2022/08/25 02:59:28;;;;;;;8.55;4.75;;;;;;;25.00;53.54;100768.13;5065459;28;20056;-70
2022/08/25 03:01:56;;;;;;;9.95;4.93;;;;;;;25.06;52.97;100769.28;5058058;28;20049;-70
2022/08/25 03:04:23;;;;;;;8.05;4.60;;;;;;;25.20;53.56;100770.03;5069189;28;20393;-71
2022/08/25 03:06:51;;;;;;;9.73;4.82;;;;;;;25.28;54.73;100762.34;5054446;28;20227;-70
2022/08/25 03:09:18;;;;;;;7.60;4.55;;;;;;;25.27;54.55;100772.00;5051281;28;20059;-70
2022/08/25 03:11:46;;;;;;;7.95;4.88;;;;;;;25.24;54.28;100781.28;5046101;28;20398;-70
2022/08/25 03:14:13;;;;;;;9.57;4.60;;;;;;;25.11;53.59;100780.94;5075434;28;20360;-70
2022/08/25 03:16:42;;;;;;;12.55;5.03;;;;;;;24.96;53.73;100778.59;5053968;28;20430;-70
2022/08/25 03:19:12;;;;;;;10.23;4.70;;;;;;;25.01;52.76;100767.72;5059399;28;20053;-71
2022/08/25 03:21:39;;;;;;;12.13;5.18;;;;;;;24.94;52.28;100773.38;5056450;28;20054;-70
2022/08/25 03:24:07;;;;;;;9.43;4.63;;;;;;;24.92;53.26;100769.34;5062265;28;20054;-70
2022/08/25 03:26:52;;;;;;;10.13;4.60;;;;;;;25.18;53.54;100757.53;5061693;28;20055;-71
2022/08/25 03:29:25;;;;;;;8.85;4.50;;;;;;;25.06;54.35;100755.19;5054730;28;20049;-71
2022/08/25 03:31:54;;;;;;;9.98;4.88;;;;;;;25.03;53.42;100756.00;5048146;28;20044;-70
2022/08/25 03:34:22;;;;;;;9.90;4.65;;;;;;;25.21;53.40;100748.28;5068934;28;20052;-70
2022/08/25 03:36:51;;;;;;;8.27;4.53;;;;;;;25.20;51.64;100739.00;5058056;28;20048;-70
2022/08/25 03:39:21;;;;;;;8.88;4.55;;;;;;;25.23;53.99;100743.00;5056279;28;20086;-70
2022/08/25 03:41:49;;;;;;;11.15;4.63;;;;;;;25.23;55.19;100735.34;5063846;28;20048;-70
2022/08/25 03:44:17;;;;;;;9.95;4.80;;;;;;;25.12;55.64;100728.97;5054889;28;20057;-70
2022/08/25 03:46:47;;;;;;;6.95;4.38;;;;;;;24.98;55.31;100728.25;5054457;28;20045;-72
2022/08/25 03:49:17;;;;;;;8.50;4.60;;;;;;;24.88;54.77;100724.28;5059128;28;20056;-71
2022/08/25 03:51:48;;;;;;;9.02;4.82;;;;;;;24.58;54.69;100735.25;5070006;28;20043;-70
2022/08/25 03:54:18;;;;;;;9.07;4.63;;;;;;;24.62;54.29;100733.22;5055947;28;20052;-70
2022/08/25 03:56:45;;;;;;;;;;;;;;;24.71;55.48;100727.97;5044843;28;20045;-71
2022/08/25 03:59:12;;;;;;;10.82;4.75;;;;;;;24.87;55.76;100733.13;5064021;28;20368;-70
2022/08/25 04:01:41;;;;;;;11.25;5.22;;;;;;;24.82;56.52;100734.38;5062286;28;20037;-70
2022/08/25 04:04:10;;;;;;;7.80;4.43;;;;;;;24.68;56.16;100751.31;5058545;28;20053;-70
2022/08/25 04:06:38;;;;;;;10.07;4.50;;;;;;;24.73;56.32;100755.72;5053763;28;20049;-70
2022/08/25 04:09:06;;;;;;;9.05;4.75;;;;;;;24.44;57.34;100752.19;5056687;28;20060;-70
2022/08/25 04:11:34;;;;;;;9.23;4.43;;;;;;;24.40;56.66;100746.56;5070428;28;20410;-70
2022/08/25 04:14:01;;;;;;;12.30;5.40;;;;;;;24.37;54.66;100758.63;5074973;28;20067;-70
2022/08/25 04:16:32;;;;;;;11.45;4.72;;;;;;;24.53;55.49;100761.81;5068265;28;20057;-72
2022/08/25 04:19:03;;;;;;;7.45;4.75;;;;;;;24.36;54.50;100754.22;5063880;28;20053;-69
2022/08/25 04:21:31;;;;;;;9.85;4.40;;;;;;;24.05;55.06;100752.25;5029146;28;20067;-72
2022/08/25 04:23:58;;;;;;;7.95;4.57;;;;;;;24.48;57.78;100759.41;5054293;28;20048;-72
2022/08/25 04:26:27;;;;;;;10.07;4.75;;;;;;;24.62;55.94;100757.78;5036294;28;20489;-70
2022/08/25 04:28:59;;;;;;;8.98;5.00;;;;;;;24.67;56.00;100758.13;5054667;28;20052;-70
2022/08/25 04:31:28;;;;;;;9.15;4.88;;;;;;;24.61;56.52;100754.16;5052283;28;20068;-71
2022/08/25 04:33:56;;;;;;;8.48;5.00;;;;;;;24.51;56.27;100764.22;5064223;28;20059;-70
2022/08/25 04:36:23;;;;;;;11.40;4.72;;;;;;;24.19;55.76;100766.31;5054227;28;20045;-71
2022/08/25 04:38:51;;;;;;;10.68;5.03;;;;;;;24.12;55.96;100766.31;5062318;28;20057;-71
2022/08/25 04:41:20;;;;;;;11.18;4.60;;;;;;;24.12;55.53;100774.78;5055970;28;20056;-72
2022/08/25 04:43:48;;;;;;;12.98;5.28;;;;;;;24.33;56.34;100771.94;5066592;28;20059;-70
2022/08/25 04:46:19;;;;;;;8.75;4.90;;;;;;;24.40;55.54;100776.72;5055264;28;20056;-70
2022/08/25 04:48:48;;;;;;;10.32;4.60;;;;;;;24.66;57.47;100781.09;5060914;28;20048;-70
2022/08/25 04:51:18;;;;;;;9.63;5.03;;;;;;;24.70;57.42;100776.28;5051134;28;20426;-71
2022/08/25 04:53:46;;;;;;;12.10;5.13;;;;;;;24.50;54.88;100776.72;5055024;28;20428;-71
2022/08/25 04:56:15;;;;;;;10.35;4.60;;;;;;;24.57;55.13;100777.88;5043059;28;20049;-71
2022/08/25 04:58:43;;;;;;;11.75;4.93;;;;;;;24.43;55.93;100784.34;5053191;28;20053;-71
2022/08/25 05:01:15;;;;;;;10.10;4.93;;;;;;;24.56;56.73;100787.56;5052086;28;20053;-70
2022/08/25 05:03:44;;;;;;;13.02;5.15;;;;;;;24.60;57.36;100791.19;5055279;28;20047;-70
2022/08/25 05:06:11;;;;;;;9.55;4.70;;;;;;;24.55;57.64;100794.41;5048195;28;20051;-70
2022/08/25 05:08:52;;;;;;;10.48;5.18;;;;;;;24.51;56.23;100803.66;5074594;27;1344491;-70
2022/08/25 05:11:20;;;;;;;10.60;4.88;;;;;;;24.30;57.10;100803.69;5094512;28;20063;-70
2022/08/25 05:13:51;;;;;;;8.45;5.00;;;;;;;24.34;56.60;100809.31;5107015;28;20059;-69
2022/08/25 05:16:20;;;;;;;9.60;4.80;;;;;;;24.52;57.72;100810.09;5091738;28;20040;-71
2022/08/25 05:18:49;;;;;;;7.22;4.18;;;;;;;24.37;57.05;100814.94;5076409;28;20043;-70
2022/08/25 05:21:23;;;;;;;9.93;5.05;;;;;;;24.54;56.61;100827.41;5091966;28;20053;-73
2022/08/25 05:23:55;;;;;;;15.05;5.55;;;;;;;24.55;56.81;100826.19;5104306;28;20050;-70
2022/08/25 05:26:24;;;;;;;8.20;5.18;;;;;;;24.66;55.59;100826.97;5098343;28;20044;-70
2022/08/25 05:28:53;;;;;;;11.57;4.80;;;;;;;24.85;56.05;100823.72;5104206;28;20059;-69
2022/08/25 05:31:22;;;;;;;7.78;4.78;;;;;;;25.07;53.53;100830.88;5069762;28;20499;-69
2022/08/25 05:33:50;;;;;;;16.83;5.83;;;;;;;25.04;52.58;100823.25;5076797;28;20063;-69
2022/08/25 05:36:19;;;;;;;11.68;4.80;;;;;;;24.80;52.99;100817.69;5085420;28;20052;-68
2022/08/25 05:38:46;;;;;;;14.13;5.00;;;;;;;24.70;53.45;100822.16;5085056;28;20052;-68
2022/08/25 05:41:19;;;;;;;12.43;5.40;;;;;;;24.57;53.15;100822.94;5084562;28;20044;-67
2022/08/25 05:43:48;;;;;;;18.85;5.50;;;;;;;24.69;52.91;100826.19;5074474;28;20048;-68
2022/08/25 05:46:17;;;;;;;14.48;5.45;;;;;;;24.83;52.51;100825.31;5087707;28;20534;-69
2022/08/25 05:48:45;;;;;;;;;;;;;;;24.82;52.60;100829.38;5067393;28;20071;-70
2022/08/25 05:51:13;;;;;;;10.50;4.93;;;;;;;24.81;52.88;100822.91;5103176;28;19920;-69
2022/08/25 05:53:44;;;;;;;14.43;5.47;;;;;;;24.81;53.28;100813.69;5102563;28;20055;-69
2022/08/25 05:56:15;;;;;;;14.80;4.90;;;;;;;24.82;53.36;100820.91;5107957;28;20052;-68
2022/08/25 05:58:43;;;;;;;16.33;5.15;;;;;;;24.83;53.43;100826.16;5102052;28;20048;-69
2022/08/25 06:04:05;;;;;;;15.13;5.32;;;;;;;25.04;52.50;100826.06;5083962;28;20082;-63
2022/08/25 06:06:32;;;;;;;9.52;5.03;;;;;;;24.89;52.65;100818.88;5079253;28;20062;-63
2022/08/25 06:09:01;;;;;;;12.02;5.25;;;;;;;24.82;52.26;100820.91;5097385;28;20063;-63
2022/08/25 06:11:29;;;;;;;13.07;5.15;;;;;;;24.85;52.40;100812.44;5094836;28;20056;-64
2022/08/25 06:13:56;;;;;;;12.73;5.32;;;;;;;24.94;52.40;100812.84;5098533;28;20059;-63
2022/08/25 06:16:24;;;;;;;13.02;4.80;;;;;;;25.13;51.60;100811.53;5083870;28;20075;-63
2022/08/25 06:18:51;;;;;;;8.40;4.88;;;;;;;25.01;51.82;100812.81;5086937;28;20048;-63
2022/08/25 06:21:19;;;;;;;12.93;5.97;;;;;;;25.00;51.70;100814.00;5090790;28;20590;-63
2022/08/25 06:23:48;;;;;;;13.43;4.85;;;;;;;24.84;51.61;100815.69;5081943;28;20049;-63
2022/08/25 06:26:15;;;;;;;13.90;5.28;;;;;;;24.73;51.74;100810.06;5068418;28;20044;-61
2022/08/25 06:28:49;;;;;;;12.40;5.03;;;;;;;24.98;50.96;100812.81;5083105;28;20048;-62
2022/08/25 06:31:18;;;;;;;15.53;4.97;;;;;;;25.01;50.74;100812.81;5072812;28;20396;-61
2022/08/25 06:33:45;;;;;;;13.07;4.95;;;;;;;24.98;49.47;100815.63;5074297;28;20059;-60
2022/08/25 06:36:14;;;;;;;15.02;6.60;;;;;;;25.15;48.93;100814.75;5060720;28;20132;-60
2022/08/25 06:38:41;;;;;;;14.25;4.90;;;;;;;25.29;47.29;100801.41;5080930;28;20060;-62
2022/08/25 06:41:11;;;;;;;11.68;5.00;;;;;;;25.46;46.71;100808.97;5084048;28;20061;-64
2022/08/25 06:43:40;;;;;;;12.85;5.10;;;;;;;25.56;46.61;100804.47;5077763;28;20427;-61
2022/08/25 06:46:19;;;;;;;10.25;3.60;;;;;;;25.58;43.51;100810.50;5065936;28;20411;-60
2022/08/25 06:48:47;;;;;;;16.65;8.70;;;;;;;25.52;44.10;100806.53;5085739;28;20384;-62
2022/08/25 06:51:17;;;;;;;12.68;5.32;;;;;;;25.58;43.74;100807.69;5086700;28;20039;-60
2022/08/25 06:53:45;;;;;;;9.43;3.88;;;;;;;25.64;44.85;100806.06;5078289;28;20059;-60
2022/08/25 06:56:13;;;;;;;23.52;9.90;;;;;;;25.74;43.97;100813.63;5069320;28;20044;-61
2022/08/25 06:58:40;;;;;;;18.88;9.80;;;;;;;25.47;44.47;100809.78;5076460;28;20061;-61
2022/08/25 07:01:10;;;;;;;15.60;5.15;;;;;;;25.68;44.00;100815.31;5068665;28;20519;-61
2022/08/25 07:03:47;;;;;;;10.60;4.07;;;;;;;25.73;43.44;100820.50;5087112;28;20054;-60
2022/08/25 07:06:15;;;;;;;14.95;3.55;;;;;;;25.17;42.58;100824.41;5076887;28;20063;-61
2022/08/25 07:08:45;;;;;;;10.00;3.75;;;;;;;25.23;42.67;100822.75;5077417;28;20048;-62
2022/08/25 07:11:13;;;;;;;14.25;3.80;;;;;;;25.57;42.66;100817.38;5065305;28;20074;-61
2022/08/25 07:13:44;;;;;;;7.40;3.53;;;;;;;25.49;41.47;100822.25;5086089;28;20526;-62
2022/08/25 07:16:12;;;;;;;12.13;3.97;;;;;;;25.65;42.01;100816.09;5069493;28;20040;-64
2022/08/25 07:18:40;;;;;;;10.60;3.70;;;;;;;25.72;41.24;100821.69;5078594;28;20049;-65
2022/08/25 07:21:07;;;;;;;16.63;8.05;;;;;;;25.87;41.21;100816.78;5077390;28;20411;-64
2022/08/25 07:23:36;;;;;;;14.70;6.15;;;;;;;25.95;40.91;100826.78;5064448;28;20051;-63
2022/08/25 07:26:36;;;;;;;164.23;17.88;;;;;;;25.98;41.01;100826.75;5080654;28;20059;-63
2022/08/25 07:29:10;;;;;;;66.70;8.70;;;;;;;25.87;41.24;100820.41;5070420;28;20048;-64
2022/08/25 07:31:37;;;;;;;89.57;10.13;;;;;;;25.92;41.73;100822.78;5083669;28;20044;-62
2022/08/25 07:36:53;;;;;;;232.75;21.98;;;;;;;25.93;40.82;100829.22;5082071;28;20044;-64
2022/08/25 07:39:21;;;;;;;223.65;22.67;;;;;;;26.02;40.87;100824.72;5056671;28;20051;-64
2022/08/25 07:41:50;;;;;;;72.63;10.25;;;;;;;25.94;41.04;100826.00;5057756;28;20053;-63
2022/08/25 07:44:20;;;;;;;110.88;11.82;;;;;;;25.97;41.06;100816.69;5058038;28;20052;-64
2022/08/25 07:46:48;;;;;;;36.75;6.07;;;;;;;26.15;41.16;100817.34;5074623;28;20059;-64
2022/08/25 07:49:20;;;;;;;13.60;2.90;;;;;;;26.13;40.76;100813.38;5075444;28;20059;-64
2022/08/25 07:51:51;;;;;;;13.95;3.20;;;;;;;26.16;40.02;100815.34;5075024;28;20053;-64
2022/08/25 07:54:33;;;;;;;11.13;3.47;;;;;;;26.18;39.57;100812.91;5075531;28;20124;-65
2022/08/25 07:57:06;;;;;;;14.05;3.80;;;;;;;26.13;39.48;100807.72;5074589;28;20495;-64
2022/08/25 07:59:34;;;;;;;18.95;3.78;;;;;;;26.25;39.38;100812.84;5075310;28;20048;-64
2022/08/25 08:02:11;;;;;;;37.67;16.52;;;;;;;26.32;40.52;100809.97;5041175;28;20507;-64
2022/08/25 08:04:49;;;;;;;11.57;4.80;;;;;;;26.25;39.08;100801.56;5065775;28;20052;-64
2022/08/25 08:07:19;;;;;;;13.50;3.40;;;;;;;26.09;38.97;100795.66;5059124;28;20060;-64
2022/08/25 08:09:49;;;;;;;10.23;3.70;;;;;;;26.32;39.17;100804.31;5075220;28;20056;-64
2022/08/25 08:12:36;;;;;;;18.38;7.75;;;;;;;26.50;38.97;100804.94;5094024;28;20064;-63
2022/08/25 08:15:04;;;;;;;13.75;5.18;;;;;;;26.78;40.84;100810.28;5077279;28;20060;-65
2022/08/25 08:17:38;;;;;;;14.10;3.70;;;;;;;27.05;39.72;100816.84;5094890;28;20044;-64
2022/08/25 08:20:07;;;;;;;23.75;5.10;;;;;;;26.92;38.60;100818.63;5077078;28;20048;-64
2022/08/25 08:22:39;;;;;;;74.10;10.77;;;;;;;27.00;39.39;100839.13;5091878;28;20131;-63
2022/08/25 08:25:09;;;;;;;16.48;3.80;;;;;;;26.89;38.25;100853.41;5074866;28;20056;-65
2022/08/25 08:27:38;;;;;;;;;;;;;;;26.55;38.69;100841.22;5094780;28;20048;-63
2022/08/25 08:30:06;;;;;;;11.35;3.55;;;;;;;26.95;38.30;100822.63;5075556;28;19928;-64
2022/08/25 08:32:33;;;;;;;12.50;5.22;;;;;;;26.69;38.21;100834.66;5076478;28;20051;-62
2022/08/25 08:35:21;;;;;;;15.25;4.40;;;;;;;26.74;38.71;100837.00;5076474;28;20044;-64
2022/08/25 08:37:48;;;;;;;11.45;4.20;;;;;;;26.87;38.31;100821.13;5076658;28;20048;-63
2022/08/25 08:40:20;;;;;;;26.98;5.18;;;;;;;27.02;39.29;100836.69;5094327;28;20071;-63
2022/08/25 08:43:01;;;;;;;26.55;4.80;;;;;;;27.34;38.58;100820.94;5073576;28;20060;-64
2022/08/25 08:45:32;;;;;;;17.45;3.30;;;;;;;27.39;37.10;100825.34;5055770;28;20067;-63
2022/08/25 08:48:15;;;;;;;19.33;3.47;;;;;;;26.94;37.80;100826.69;5074292;28;20052;-65
2022/08/25 08:51:11;;;;;;;14.13;3.47;;;;;;;26.87;38.37;100830.38;5074056;28;20044;-63
2022/08/25 08:54:00;;;;;;;14.88;3.55;;;;;;;27.20;38.72;100840.13;5065386;28;20064;-63
2022/08/25 08:56:33;;;;;;;11.63;3.63;;;;;;;27.56;38.21;100849.75;5055960;28;20501;-63
2022/08/25 08:59:11;;;;;;;10.73;3.90;;;;;;;26.73;39.04;100855.22;5056412;28;20128;-63
2022/08/25 09:01:46;;;;;;;24.58;5.78;;;;;;;26.75;40.00;100856.38;5073875;28;20048;-63
2022/08/25 09:04:26;;;;;;;22.83;4.47;;;;;;;26.64;40.84;100844.34;5079511;28;20379;-64
2022/08/25 09:06:56;;;;;;;17.23;4.20;;;;;;;26.58;41.40;100852.50;5061553;28;20059;-63
2022/08/25 09:09:29;;;;;;;15.50;4.32;;;;;;;26.59;41.78;100848.44;5074135;28;20115;-64
2022/08/25 09:12:21;;;;;;;9.05;3.85;;;;;;;26.57;41.99;100850.09;5055490;28;20079;-63
2022/08/25 09:14:54;;;;;;;13.43;3.50;;;;;;;26.86;42.13;100839.31;5055237;28;20067;-65
2022/08/25 09:17:40;;;;;;;9.73;4.20;;;;;;;26.54;43.34;100846.06;5055338;28;20059;-64
2022/08/25 09:20:24;;;;;;;10.15;3.70;;;;;;;26.39;43.26;100838.94;5056224;28;20431;-65
2022/08/25 09:22:54;;;;;;;8.45;3.88;;;;;;;26.26;44.15;100843.50;5056003;28;20055;-63
2022/08/25 09:25:34;;;;;;;8.02;3.95;;;;;;;26.34;43.84;100853.50;5055522;28;20063;-63
2022/08/25 09:28:25;;;;;;;18.63;4.20;;;;;;;26.38;44.46;100842.16;5073829;28;20044;-64
2022/08/25 09:30:58;;;;;;;12.95;4.00;;;;;;;26.41;44.22;100841.34;5055223;28;20055;-65
2022/08/25 09:33:27;;;;;;;36.85;7.28;;;;;;;26.33;43.72;100853.91;5073772;28;20053;-65
2022/08/25 09:35:55;;;;;;;14.43;4.28;;;;;;;26.23;43.91;100857.66;5073517;28;20052;-65
2022/08/25 09:38:29;;;;;;;26.83;5.90;;;;;;;26.48;43.22;100856.19;5073865;28;20049;-65
2022/08/25 09:40:59;;;;;;;13.27;4.07;;;;;;;26.42;43.28;100855.06;5073733;28;20053;-64
2022/08/25 09:43:36;;;;;;;16.17;4.38;;;;;;;26.49;42.46;100848.53;5074382;28;20045;-63
2022/08/25 09:46:16;;;;;;;11.05;3.92;;;;;;;26.65;42.67;100852.41;5073628;28;20049;-64
2022/08/25 09:48:50;;;;;;;10.60;3.55;;;;;;;26.89;41.98;100855.41;5039435;28;20061;-64
2022/08/25 09:51:35;;;;;;;12.60;3.97;;;;;;;26.71;41.33;100847.13;5073717;28;20626;-63
2022/08/25 09:54:11;;;;;;;7.28;3.78;;;;;;;26.49;42.59;100851.34;5041806;28;20052;-63
2022/08/25 09:56:57;;;;;;;14.93;4.00;;;;;;;26.59;41.58;100856.09;5077528;28;20048;-64
2022/08/25 09:59:35;;;;;;;11.07;3.97;;;;;;;26.18;42.38;100856.09;5060360;28;20041;-64
2022/08/25 10:02:29;;;;;;;17.70;5.85;;;;;;;26.31;42.16;100843.03;5077452;28;20075;-63
2022/08/25 10:04:56;;;;;;;15.05;3.90;;;;;;;26.30;42.09;100838.63;5066840;28;20064;-65
2022/08/25 10:07:27;;;;;;;12.35;3.75;;;;;;;26.41;42.29;100844.19;5078441;28;20045;-64
2022/08/25 10:10:06;;;;;;;10.65;3.78;;;;;;;26.44;42.51;100841.31;5059575;28;20048;-64
2022/08/25 10:12:39;;;;;;;11.13;3.70;;;;;;;26.42;42.40;100832.47;5077131;28;20052;-65
2022/08/25 10:15:31;;;;;;;11.68;3.42;;;;;;;26.64;41.52;100841.50;5077300;28;20048;-64
2022/08/25 10:18:19;;;;;;;11.37;3.90;;;;;;;26.56;41.87;100823.03;5077551;28;20635;-65
2022/08/25 10:21:14;;;;;;;16.02;4.25;;;;;;;26.93;41.45;100819.44;5082206;28;20289;-64
2022/08/25 10:23:50;;;;;;;9.52;3.47;;;;;;;26.83;40.77;100823.19;5086365;28;20127;-63
2022/08/25 10:26:35;;;;;;;7.63;3.38;;;;;;;26.81;40.54;100817.97;5059341;28;20052;-64
2022/08/25 10:29:10;;;;;;;9.38;3.90;;;;;;;27.03;39.88;100813.66;5077214;28;20052;-64
2022/08/25 10:31:40;;;;;;;11.23;5.03;;;;;;;26.97;38.96;100804.00;5058724;28;20060;-64
2022/08/25 10:34:21;;;;;;;15.75;3.75;;;;;;;27.20;39.48;100801.31;5059152;28;20052;-63
2022/08/25 10:37:11;;;;;;;10.45;5.50;;;;;;;27.45;38.82;100793.31;5072216;28;20048;-65
2022/08/25 10:39:44;;;;;;;11.90;4.88;;;;;;;27.56;39.05;100784.66;5079816;28;20050;-65
2022/08/25 10:42:35;;;;;;;7.65;3.70;;;;;;;27.69;38.82;100777.16;5096503;28;20060;-64
2022/08/25 10:45:43;;;;;;;12.43;3.78;;;;;;;27.79;38.79;100781.06;5078767;28;20056;-63
2022/08/25 10:48:29;;;;;;;10.45;3.45;;;;;;;27.83;38.98;100776.16;4979320;28;20054;-64
2022/08/25 10:51:00;;;;;;;10.70;3.30;;;;;;;28.02;38.19;100793.25;5093156;28;20056;-64
2022/08/25 10:53:46;;;;;;;9.25;3.17;;;;;;;27.84;38.54;100772.91;5078398;28;20059;-66
2022/08/25 10:56:32;;;;;;;10.10;3.08;;;;;;;27.93;38.58;100783.72;5096618;28;20040;-63
2022/08/25 10:59:19;;;;;;;8.48;3.40;;;;;;;28.12;38.67;100778.13;5097085;28;20052;-64
2022/08/25 11:01:53;;;;;;;11.95;4.10;;;;;;;28.23;37.52;100781.56;5096203;28;20418;-64
2022/08/25 11:04:28;;;;;;;9.75;4.30;;;;;;;28.26;37.65;100780.69;5091625;28;20048;-65
2022/08/25 11:06:58;;;;;;;11.68;3.53;;;;;;;28.24;36.12;100783.16;5058538;28;20399;-65
2022/08/25 11:09:33;;;;;;;8.38;3.50;;;;;;;28.17;36.75;100777.63;5041659;28;20095;-64
2022/08/25 11:12:20;;;;;;;8.80;2.83;;;;;;;28.15;36.25;100784.94;5058814;28;20055;-64
2022/08/25 11:14:55;;;;;;;6.90;2.65;;;;;;;28.37;36.23;100778.47;5058283;28;20052;-64
2022/08/25 11:17:42;;;;;;;10.43;3.15;;;;;;;28.41;35.83;100784.06;5058570;28;20148;-64
2022/08/25 11:20:16;;;;;;;7.53;3.13;;;;;;;28.36;36.03;100776.06;5076446;28;20059;-64
2022/08/25 11:23:06;;;;;;;11.98;4.07;;;;;;;28.57;35.45;100787.03;5059583;28;20049;-64
2022/08/25 11:25:43;;;;;;;7.45;2.65;;;;;;;28.59;34.92;100781.72;5057772;28;20059;-63
2022/08/25 11:28:15;;;;;;;9.70;3.42;;;;;;;28.47;34.76;100780.28;5042242;28;20059;-63
2022/08/25 11:30:43;;;;;;;10.77;3.00;;;;;;;28.60;34.38;100772.78;5057850;28;20147;-63
2022/08/25 11:33:17;;;;;;;7.65;3.10;;;;;;;28.89;34.13;100780.72;5075857;28;20052;-64
2022/08/25 11:35:52;;;;;;;18.98;3.17;;;;;;;28.88;34.11;100784.78;5075292;28;20052;-63
2022/08/25 11:38:46;;;;;;;13.23;3.33;;;;;;;29.11;33.49;100785.56;5057954;28;20049;-64
2022/08/25 11:41:46;;;;;;;13.60;5.57;;;;;;;29.36;32.93;100790.69;5075393;28;20045;-63
2022/08/25 11:44:39;;;;;;;8.05;3.70;;;;;;;29.48;32.74;100787.16;5057928;28;20052;-63
2022/08/25 11:47:37;;;;;;;11.35;3.33;;;;;;;29.59;32.61;100788.50;5074720;28;20045;-64